Time;durP1;ratioP1;P1;durP2;ratioP2;P2;SDS_P1;SDS_P2;PMS_P1;PMS_P2;Temp;Humidity;BMP_temperature;BMP_pressure;BME280_temperature;BME280_humidity;BME280_pressure;Samples;Min_cycle;Max_cycle;Signal;HPM_P1;HPM_P2
2022/04/21 00:00:36;;;;;;;;;9.67;9.00;;;;;15.38;36.53;100414.38;5078181;27;45471;-56
2022/04/21 00:03:03;;;;;;;;;12.67;11.33;;;;;15.28;36.64;100399.00;5078697;27;45571;-57
2022/04/21 00:05:29;;;;;;;;;13.00;11.67;;;;;15.15;36.85;100368.81;5077537;27;46473;-61
2022/04/21 00:07:55;;;;;;;;;4.00;3.00;;;;;15.16;37.45;100375.88;5096088;27;45405;-57
2022/04/21 00:10:23;;;;;;;;;10.33;10.33;;;;;15.31;37.35;100396.09;5079984;28;45450;-59
2022/04/21 00:12:49;;;;;;;;;15.00;11.00;;;;;15.33;37.23;100394.13;5077040;27;45579;-59
2022/04/21 00:15:15;;;;;;;;;13.33;11.33;;;;;15.38;37.53;100396.47;5074323;27;45327;-60
2022/04/21 00:17:41;;;;;;;;;10.33;10.33;;;;;15.34;37.21;100381.59;5079169;27;45178;-56
2022/04/21 00:20:07;;;;;;;;;7.67;7.67;;;;;15.25;35.85;100375.16;5077111;27;45425;-56
2022/04/21 00:25:17;;;;;;;;;11.33;10.67;;;;;15.15;36.83;100379.53;5073377;28;45717;-59
2022/04/21 00:27:45;;;;;;;;;15.67;9.00;;;;;15.16;37.31;100375.88;5077703;27;45319;-58
2022/04/21 00:30:12;;;;;;;;;11.67;11.00;;;;;15.14;37.39;100372.47;5078961;27;45357;-59
2022/04/21 00:32:40;;;;;;;;;13.00;12.00;;;;;15.16;37.46;100370.50;5075905;27;45506;-58
2022/04/21 00:35:07;;;;;;;;;12.00;11.67;;;;;15.10;37.96;100376.31;5076283;27;45644;-61
2022/04/21 00:37:33;;;;;;;;;14.33;14.33;;;;;15.08;38.11;100377.44;5077087;27;45337;-58
2022/04/21 00:39:59;;;;;;;;;21.67;18.33;;;;;14.94;38.41;100365.97;5078441;27;45471;-59
2022/04/21 00:42:25;;;;;;;;;22.00;22.00;;;;;14.84;38.35;100369.47;5077042;27;45623;-58
2022/04/21 00:44:51;;;;;;;;;25.50;19.50;;;;;14.69;38.33;100379.53;5059489;28;47482;-57
2022/04/21 00:47:18;;;;;;;;;24.25;19.75;;;;;14.54;38.13;100362.84;5073271;27;45437;-59
2022/04/21 00:49:48;;;;;;;;;17.00;15.33;;;;;14.43;38.50;100360.06;5078134;27;45395;-58
2022/04/21 00:52:14;;;;;;;;;12.00;12.00;;;;;14.46;39.10;100375.97;5071905;28;45422;-58
2022/04/21 00:54:40;;;;;;;;;16.00;15.50;;;;;14.46;38.82;100367.94;5077441;27;45484;-58
2022/04/21 00:57:06;;;;;;;;;10.67;10.67;;;;;14.45;39.54;100368.88;5077367;27;45381;-58
2022/04/21 00:59:33;;;;;;;;;13.00;11.50;;;;;14.56;39.12;100365.38;5075539;27;45412;-57
2022/04/21 01:04:46;;;;;;;;;8.00;8.00;;;;;14.51;39.00;100356.88;5076845;27;46115;-57
2022/04/21 01:07:11;;;;;;;;;12.67;12.00;;;;;14.48;39.69;100366.00;5076002;27;45425;-57
2022/04/21 01:09:40;;;;;;;;;10.67;9.67;;;;;14.48;38.81;100347.25;5073438;27;45721;-58
2022/04/21 01:12:11;;;;;;;;;4.00;4.00;;;;;14.48;39.21;100351.75;5074261;27;45402;-58
2022/04/21 01:14:39;;;;;;;;;11.00;11.00;;;;;14.40;39.09;100349.63;5057622;28;45449;-59
2022/04/21 01:17:06;;;;;;;;;14.33;10.00;;;;;14.30;38.59;100353.94;5074363;27;45569;-57
2022/04/21 01:19:31;;;;;;;;;10.67;8.00;;;;;14.26;39.14;100348.00;5066845;28;45730;-58
2022/04/21 01:21:57;;;;;;;;;9.33;8.00;;;;;14.20;38.26;100348.47;5076304;28;45471;-57
2022/04/21 01:24:22;;;;;;;;;9.00;9.00;;;;;14.15;38.49;100343.44;5059856;27;46033;-58
2022/04/21 01:26:48;;;;;;;;;14.00;10.00;;;;;14.16;39.03;100342.47;5076916;27;45454;-58
2022/04/21 01:29:14;;;;;;;;;10.00;10.00;;;;;14.22;38.87;100346.53;5076761;28;45406;-58
2022/04/21 01:31:39;;;;;;;;;9.33;9.00;;;;;14.10;38.94;100329.56;5066507;28;45420;-59
2022/04/21 01:34:05;;;;;;;;;11.75;9.00;;;;;14.09;38.37;100338.56;5074792;27;46551;-58
2022/04/21 01:36:31;;;;;;;;;8.67;7.33;;;;;14.09;39.11;100340.38;5066372;28;45692;-59
2022/04/21 01:41:40;;;;;;;;;10.00;8.33;;;;;14.11;38.52;100343.78;5075502;28;45448;-58
2022/04/21 01:44:06;;;;;;;;;4.00;4.00;;;;;14.04;39.18;100343.38;5076650;27;46043;-58
2022/04/21 01:46:32;;;;;;;;;9.67;8.00;;;;;14.04;38.49;100340.69;5077429;27;45184;-58
2022/04/21 01:48:57;;;;;;;;;12.50;8.00;;;;;14.03;38.85;100330.97;5074413;27;45303;-58
2022/04/21 01:51:23;;;;;;;;;9.33;7.67;;;;;14.05;38.74;100334.38;5076618;27;45168;-57
2022/04/21 01:53:48;;;;;;;;;10.25;9.00;;;;;14.08;38.39;100331.50;5076829;28;45421;-57
2022/04/21 01:56:14;;;;;;;;;7.50;7.50;;;;;13.94;39.41;100323.66;5075825;28;45255;-57
2022/04/21 01:58:40;;;;;;;;;11.00;11.00;;;;;14.01;38.53;100338.25;5075719;27;45759;-58
2022/04/21 02:01:06;;;;;;;;;8.67;7.00;;;;;13.88;39.28;100313.41;5076484;27;45367;-58
2022/04/21 02:03:32;;;;;;;;;8.25;8.25;;;;;13.95;39.39;100319.16;5075380;27;45499;-58
2022/04/21 02:05:58;;;;;;;;;9.00;9.00;;;;;13.94;39.10;100315.66;5076347;27;45399;-58
2022/04/21 02:08:23;;;;;;;;;9.33;8.33;;;;;14.00;39.42;100323.19;5075656;27;47056;-59
2022/04/21 02:10:49;;;;;;;;;9.00;9.00;;;;;14.00;39.28;100317.84;5074911;27;45672;-59
2022/04/21 02:13:14;;;;;;;;;12.25;10.50;;;;;13.92;38.86;100306.00;5076774;27;45624;-57
2022/04/21 02:15:39;;;;;;;;;8.75;5.00;;;;;13.95;39.11;100320.03;5075437;27;45473;-59
2022/04/21 02:18:05;;;;;;;;;9.50;9.50;;;;;13.89;38.92;100320.47;5077686;27;45302;-58
2022/04/21 02:20:31;;;;;;;;;12.75;10.00;;;;;13.82;38.75;100304.03;5071824;27;45592;-58
2022/04/21 02:22:57;;;;;;;;;9.50;9.50;;;;;13.73;38.19;100295.84;5076057;27;45369;-57
2022/04/21 02:25:22;;;;;;;;;8.00;8.00;;;;;13.56;38.61;100289.91;5076788;28;45462;-57
2022/04/21 02:27:48;;;;;;;;;7.75;7.75;;;;;13.71;38.52;100303.97;5075659;27;45453;-57
2022/04/21 02:30:16;;;;;;;;;7.00;7.00;;;;;13.66;38.79;100291.91;5073799;27;45525;-58
2022/04/21 02:32:42;;;;;;;;;7.75;7.75;;;;;13.63;38.83;100284.97;5076599;27;45401;-57
2022/04/21 02:35:10;;;;;;;;;10.50;9.00;;;;;13.77;38.92;100302.66;5074692;28;45494;-56
2022/04/21 02:37:42;;;;;;;;;7.75;7.75;;;;;13.72;38.38;100296.81;5077109;27;45381;-56
2022/04/21 02:40:09;;;;;;;;;8.00;6.50;;;;;13.67;39.15;100298.94;5074753;27;45604;-57
2022/04/21 02:42:40;;;;;;;;;7.00;7.00;;;;;13.63;39.29;100284.13;5077177;27;45280;-57
2022/04/21 02:45:08;;;;;;;;;7.00;7.00;;;;;13.66;38.90;100295.41;5076552;27;45862;-57
2022/04/21 02:47:35;;;;;;;;;11.50;10.00;;;;;13.56;39.54;100289.91;5072531;27;45420;-57
2022/04/21 02:50:01;;;;;;;;;8.33;8.33;;;;;13.52;39.15;100299.09;5075981;27;45650;-58
2022/04/21 02:52:28;;;;;;;;;9.00;9.00;;;;;13.53;39.13;100298.13;5074617;27;45377;-60
2022/04/21 02:57:38;;;;;;;;;13.50;10.75;;;;;13.43;39.07;100293.59;5076094;28;45294;-57
2022/04/21 03:00:06;;;;;;;;;8.25;8.25;;;;;13.33;38.80;100293.41;5074029;27;45518;-58
2022/04/21 03:02:32;;;;;;;;;10.00;8.75;;;;;13.28;39.34;100285.72;5076110;27;45812;-59
2022/04/21 03:04:57;;;;;;;;;10.00;9.25;;;;;13.24;39.31;100291.38;5075830;28;45947;-59
2022/04/21 03:07:23;;;;;;;;;11.00;10.00;;;;;13.24;39.43;100288.72;5075729;28;45346;-59
2022/04/21 03:09:55;;;;;;;;;9.50;9.50;;;;;13.25;39.51;100290.41;5073067;28;45659;-57
2022/04/21 03:12:26;;;;;;;;;8.00;8.00;;;;;13.22;39.81;100291.50;5075797;27;45506;-58
2022/04/21 03:14:52;;;;;;;;;10.25;9.00;;;;;13.17;39.63;100280.28;5075889;27;45299;-59
2022/04/21 03:17:18;;;;;;;;;10.00;8.25;;;;;13.13;39.73;100275.25;5073702;27;45384;-58
2022/04/21 03:19:44;;;;;;;;;9.75;8.50;;;;;13.10;40.44;100276.31;5075308;27;45403;-58
2022/04/21 03:24:58;;;;;;;;;9.75;7.25;;;;;13.08;39.83;100277.41;5076201;27;45344;-60
2022/04/21 03:27:26;;;;;;;;;8.25;7.50;;;;;13.07;40.02;100273.03;5075118;27;45511;-57
2022/04/21 03:29:52;;;;;;;;;8.00;8.00;;;;;12.96;40.08;100258.63;5055789;28;45418;-58
2022/04/21 03:32:17;;;;;;;;;10.50;8.00;;;;;13.04;39.81;100268.75;5075618;27;45440;-59
2022/04/21 03:34:44;;;;;;;;;12.75;10.00;;;;;13.04;39.92;100267.91;5072794;27;45418;-57
2022/04/21 03:37:11;;;;;;;;;9.00;8.25;;;;;12.89;40.32;100261.81;5072252;28;45574;-58
2022/04/21 03:39:38;;;;;;;;;6.25;6.25;;;;;12.90;39.96;100264.41;5075137;27;45411;-58
2022/04/21 03:42:16;;;;;;;;;14.00;9.75;;;;;12.84;41.13;100258.63;5075787;28;45512;-58
2022/04/21 03:44:42;;;;;;;;;7.00;7.00;;;;;12.84;40.89;100259.50;5074471;27;45488;-58
2022/04/21 03:47:08;;;;;;;;;8.25;8.25;;;;;12.73;40.55;100250.53;5073979;28;45304;-59
2022/04/21 03:49:33;;;;;;;;;11.25;9.00;;;;;12.76;40.67;100259.19;5060475;27;46797;-58
2022/04/21 03:51:58;;;;;;;;;8.75;7.75;;;;;12.69;41.23;100261.44;5056801;28;47479;-58
2022/04/21 03:54:24;;;;;;;;;13.75;9.00;;;;;12.68;42.01;100258.88;5075002;28;45273;-58
2022/04/21 03:56:50;;;;;;;;;12.00;8.25;;;;;12.68;40.71;100265.06;5075754;27;45511;-57
2022/04/21 03:59:17;;;;;;;;;9.75;9.75;;;;;12.60;41.18;100263.88;5074694;27;45545;-59
2022/04/21 04:01:43;;;;;;;;;11.00;9.50;;;;;12.62;41.65;100272.63;5072568;27;45502;-58
2022/04/21 04:04:08;;;;;;;;;12.25;10.00;;;;;12.57;41.17;100262.28;5075735;27;45885;-56
2022/04/21 04:12:03;;;;;;;;;17.00;13.25;;;;;12.55;41.00;100263.34;5061682;27;45509;-59
2022/04/21 04:14:29;;;;;;;;;13.50;12.00;;;;;12.54;41.80;100258.97;5074644;28;45338;-58
2022/04/21 04:16:55;;;;;;;;;10.75;10.25;;;;;12.56;41.46;100257.06;5075288;27;45364;-57
2022/04/21 04:19:20;;;;;;;;;14.75;11.50;;;;;12.57;41.26;100269.44;5074323;27;45626;-58
2022/04/21 04:21:46;;;;;;;;;10.50;8.50;;;;;12.51;41.36;100267.19;5076398;27;45215;-58
2022/04/21 04:24:11;;;;;;;;;9.75;9.75;;;;;12.37;41.47;100277.00;5077661;27;45818;-58
2022/04/21 04:26:37;;;;;;;;;12.00;12.00;;;;;12.25;41.72;100275.19;5079512;27;45451;-58
2022/04/21 04:29:03;;;;;;;;;13.50;13.00;;;;;12.23;41.94;100274.41;5079046;27;45217;-58
2022/04/21 04:31:29;;;;;;;;;12.00;9.75;;;;;12.18;41.85;100265.88;5061957;27;45739;-57
2022/04/21 04:33:54;;;;;;;;;10.00;9.25;;;;;12.07;42.03;100265.75;5060345;28;45415;-58
2022/04/21 04:36:21;;;;;;;;;12.00;9.50;;;;;12.10;42.17;100276.19;5075714;27;45656;-58
2022/04/21 04:38:48;;;;;;;;;9.75;9.75;;;;;11.96;42.53;100261.13;5077739;27;45420;-57
2022/04/21 04:43:59;;;;;;;;;13.50;11.25;;;;;11.94;42.19;100289.69;5060123;28;45397;-57
2022/04/21 04:46:40;;;;;;;;;13.00;12.50;;;;;11.94;42.28;100278.19;5078414;27;45476;-58
2022/04/21 04:49:10;;;;;;;;;14.50;11.75;;;;;11.94;42.79;100288.84;5074935;28;45520;-58
2022/04/21 04:51:41;;;;;;;;;16.25;11.75;;;;;11.95;42.78;100295.88;5070368;27;45394;-59
2022/04/21 04:54:06;;;;;;;;;14.00;9.50;;;;;11.82;42.54;100296.69;5076724;27;45459;-58
2022/04/21 04:56:33;;;;;;;;;14.50;11.25;;;;;11.78;42.75;100289.81;5077944;27;45489;-58
2022/04/21 04:58:58;;;;;;;;;14.00;12.00;;;;;11.68;42.78;100278.06;5077458;28;45553;-59
2022/04/21 05:01:31;;;;;;;;;13.00;9.00;;;;;11.75;43.20;100292.69;5075775;27;46069;-64
2022/04/21 05:04:04;;;;;;;;;13.50;13.50;;;;;11.70;42.92;100292.13;5077847;27;45326;-58
2022/04/21 05:06:35;;;;;;;;;9.75;9.25;;;;;11.71;43.14;100293.84;5076431;28;45473;-57
2022/04/21 05:09:00;;;;;;;;;12.75;12.25;;;;;11.66;42.93;100295.09;5075711;27;45551;-59
2022/04/21 05:11:26;;;;;;;;;17.75;12.75;;;;;11.57;42.71;100287.69;5075603;27;45761;-59
2022/04/21 05:13:52;;;;;;;;;12.50;11.75;;;;;11.58;43.68;100284.06;5079106;27;45436;-57
2022/04/21 05:16:17;;;;;;;;;12.75;12.75;;;;;11.78;42.88;100295.16;5078191;27;45449;-57
2022/04/21 05:18:43;;;;;;;;;17.75;14.25;;;;;11.82;43.07;100306.47;5075766;27;45475;-59
2022/04/21 05:21:09;;;;;;;;;12.75;12.75;;;;;11.88;43.09;100299.91;5076427;28;46487;-58
2022/04/21 05:23:38;;;;;;;;;13.25;11.25;;;;;11.89;42.52;100312.28;5085168;27;45636;-58
2022/04/21 05:26:04;;;;;;;;;13.75;12.50;;;;;11.91;42.25;100294.38;5087184;27;45421;-58
2022/04/21 05:28:30;;;;;;;;;15.75;14.00;;;;;11.91;42.53;100289.06;5078681;27;45495;-58
2022/04/21 05:30:58;;;;;;;;;16.50;12.25;;;;;12.02;42.29;100307.84;5079562;27;46057;-59
2022/04/21 05:33:26;;;;;;;;;15.00;11.75;;;;;11.99;42.97;100302.72;5079566;27;45444;-59
2022/04/21 05:35:53;;;;;;;;;15.25;12.25;;;;;12.03;42.95;100306.91;5090213;27;45578;-59
2022/04/21 05:38:21;;;;;;;;;11.50;11.50;;;;;12.06;42.26;100288.03;5089089;27;45562;-56
2022/04/21 05:40:47;;;;;;;;;9.25;9.25;;;;;12.05;43.20;100299.66;5079912;27;45432;-61
2022/04/21 05:43:17;;;;;;;;;11.00;9.00;;;;;12.14;42.96;100296.38;5090357;27;45182;-61
2022/04/21 05:45:43;;;;;;;;;17.50;13.75;;;;;12.15;42.56;100287.41;5076925;27;45436;-64
2022/04/21 05:48:09;;;;;;;;;9.75;9.50;;;;;12.18;43.27;100286.34;5080564;27;45574;-60
2022/04/21 05:50:35;;;;;;;;;14.25;9.75;;;;;12.23;42.76;100274.41;5077118;27;45977;-59
2022/04/21 05:53:03;;;;;;;;;20.00;14.00;;;;;12.32;42.50;100288.94;5061411;28;45701;-61
2022/04/21 05:55:35;;;;;;;;;13.25;12.50;;;;;12.30;42.71;100278.38;5075840;27;45278;-59
2022/04/21 05:58:01;;;;;;;;;14.75;14.50;;;;;12.28;42.53;100288.28;5057392;28;45330;-58
2022/04/21 06:00:26;;;;;;;;;12.50;12.50;;;;;12.30;41.77;100286.38;5076218;28;45730;-59
2022/04/21 06:02:52;;;;;;;;;22.25;15.50;;;;;12.25;43.94;100282.31;5077310;28;45286;-57
2022/04/21 06:05:17;;;;;;;;;19.00;14.75;;;;;12.35;44.82;100281.56;5074028;27;45323;-61
2022/04/21 06:07:42;;;;;;;;;16.00;13.75;;;;;12.40;43.63;100282.13;5077009;27;45205;-57
2022/04/21 06:10:08;;;;;;;;;19.50;13.50;;;;;12.32;43.22;100273.78;5076866;27;45774;-57
2022/04/21 06:12:36;;;;;;;;;1.50;1.50;;;;;12.39;42.67;100280.41;5080199;27;45328;-57
2022/04/21 06:15:05;;;;;;;;;19.25;15.25;;;;;12.31;43.53;100264.06;5077250;27;45499;-58
2022/04/21 06:17:30;;;;;;;;;13.00;11.75;;;;;12.24;43.11;100253.91;5071042;27;45505;-60
2022/04/21 06:19:56;;;;;;;;;20.50;14.25;;;;;12.26;42.67;100263.56;5062595;28;46265;-57
2022/04/21 06:22:21;;;;;;;;;17.75;14.50;;;;;12.39;42.86;100277.75;5075705;27;45413;-63
2022/04/21 06:24:47;;;;;;;;;17.50;15.00;;;;;12.33;43.34;100270.16;5074332;27;45417;-59
2022/04/21 06:27:13;;;;;;;;;11.50;11.50;;;;;12.36;42.65;100269.94;5077239;28;45561;-60
2022/04/21 06:29:38;;;;;;;;;21.00;16.25;;;;;12.31;42.63;100265.88;5075496;27;45451;-62
2022/04/21 06:32:05;;;;;;;;;14.50;14.50;;;;;12.39;42.88;100280.41;5077630;27;45453;-64
2022/04/21 06:34:32;;;;;;;;;20.50;14.75;;;;;12.38;42.50;100268.03;5069821;27;45571;-62
2022/04/21 06:37:00;;;;;;;;;21.00;14.50;;;;;12.36;42.12;100261.09;5071816;27;45658;-62
2022/04/21 06:39:25;;;;;;;;;15.75;14.25;;;;;12.38;42.60;100268.03;5065531;27;48516;-61
2022/04/21 06:41:51;;;;;;;;;13.25;12.25;;;;;12.39;42.87;100269.75;5072048;28;45706;-64
2022/04/21 06:49:44;;;;;;;;;13.00;13.00;;;;;12.58;42.82;100279.13;5068173;28;45826;-62
2022/04/21 06:52:10;;;;;;;;;17.25;14.75;;;;;12.58;42.58;100253.31;5068516;27;45599;-63
2022/04/21 06:54:35;;;;;;;;;15.50;13.75;;;;;12.66;42.04;100266.13;5084800;27;45551;-63
2022/04/21 06:57:01;;;;;;;;;14.50;13.25;;;;;12.61;41.90;100257.56;5076951;27;45580;-62
2022/04/21 06:59:26;;;;;;;;;13.00;13.00;;;;;12.69;42.48;100260.56;5063550;27;46156;-61
2022/04/21 07:01:52;;;;;;;;;13.50;13.50;;;;;12.73;42.32;100272.72;5067455;27;45313;-63
2022/04/21 07:04:18;;;;;;;;;13.25;11.75;;;;;12.74;41.86;100261.09;5082652;27;45283;-62
2022/04/21 07:06:43;;;;;;;;;12.25;10.00;;;;;12.77;42.45;100263.56;5059086;28;45183;-63
2022/04/21 07:09:09;;;;;;;;;14.00;13.25;;;;;12.84;42.32;100272.84;5056011;28;45306;-64
2022/04/21 07:11:34;;;;;;;;;12.50;12.50;;;;;12.82;42.84;100263.22;5064263;28;46143;-63
2022/04/21 07:14:00;;;;;;;;;12.00;12.00;;;;;12.83;42.03;100257.78;5073718;27;45627;-62
2022/04/21 07:16:25;;;;;;;;;13.50;13.25;;;;;12.95;41.82;100267.59;5085073;27;45451;-61
2022/04/21 07:18:50;;;;;;;;;15.75;14.75;;;;;12.99;42.11;100262.88;5075365;27;45549;-64
2022/04/21 07:21:16;;;;;;;;;13.00;10.75;;;;;12.97;41.59;100259.47;5076461;27;45422;-62
2022/04/21 07:23:44;;;;;;;;;12.25;12.25;;;;;12.92;42.01;100250.97;5072285;27;45527;-60
2022/04/21 07:26:10;;;;;;;;;11.25;11.25;;;;;13.04;42.19;100267.91;5076200;27;45721;-66
2022/04/21 07:28:36;;;;;;;;;14.00;11.75;;;;;13.10;42.24;100259.44;5072638;27;46253;-60
2022/04/21 07:31:02;;;;;;;;;10.75;10.75;;;;;12.98;41.75;100235.34;5073572;28;45417;-60
2022/04/21 07:33:27;;;;;;;;;15.50;14.75;;;;;13.13;41.80;100253.88;5086272;27;45260;-60
2022/04/21 07:35:53;;;;;;;;;13.75;11.75;;;;;13.20;41.52;100258.72;5062805;27;45551;-60
2022/04/21 07:38:19;;;;;;;;;13.75;13.75;;;;;13.17;42.04;100250.06;5087200;27;45565;-59
2022/04/21 07:40:49;;;;;;;;;16.50;15.25;;;;;13.24;42.01;100248.66;5073056;28;45558;-59
2022/04/21 07:43:16;;;;;;;;;15.50;11.50;;;;;13.24;42.07;100232.63;5074717;27;45662;-60
2022/04/21 07:45:42;;;;;;;;;13.25;13.25;;;;;13.30;41.46;100237.56;5069725;27;45620;-62
2022/04/21 07:48:08;;;;;;;;;16.00;14.00;;;;;13.29;41.93;100241.19;5074167;27;46069;-63
2022/04/21 07:50:34;;;;;;;;;15.00;13.50;;;;;13.23;41.59;100217.59;5072621;28;45246;-65
2022/04/21 07:53:14;;;;;;;;;14.00;13.50;;;;;13.33;42.10;100228.44;5075841;27;45401;-63
2022/04/21 07:55:46;;;;;;;;;13.75;13.75;;;;;13.45;41.61;100244.44;5068857;27;45433;-61
2022/04/21 07:58:12;;;;;;;;;17.25;15.00;;;;;13.52;41.38;100239.47;5069516;27;45554;-64
2022/04/21 08:00:38;;;;;;;;;16.25;14.25;;;;;13.61;41.94;100243.28;5094159;27;45390;-59
2022/04/21 08:03:09;;;;;;;;;20.50;19.50;;;;;13.65;42.04;100242.94;5070674;27;45362;-63
2022/04/21 08:05:36;;;;;;;;;14.25;12.00;;;;;13.70;41.31;100238.13;5096832;27;45335;-61
2022/04/21 08:08:03;;;;;;;;;19.25;14.50;;;;;13.73;41.25;100226.34;5074331;28;46254;-56
2022/04/21 08:10:29;;;;;;;;;18.00;14.25;;;;;13.86;42.14;100221.78;5076361;28;45504;-57
2022/04/21 08:12:59;;;;;;;;;14.75;14.00;;;;;13.96;40.98;100238.00;5077085;27;45515;-57
2022/04/21 08:15:26;;;;;;;;;13.50;12.50;;;;;14.01;40.96;100235.81;5079173;27;45322;-60
2022/04/21 08:17:54;;;;;;;;;16.50;15.50;;;;;14.05;40.90;100238.13;5077089;27;46629;-57
2022/04/21 08:20:20;;;;;;;;;12.50;11.25;;;;;14.10;41.15;100237.78;5063910;28;45366;-56
2022/04/21 08:22:46;;;;;;;;;14.25;14.25;;;;;14.18;40.71;100241.56;5065609;27;45368;-54
2022/04/21 08:33:26;;;;;;;;;16.00;16.00;;;;;14.60;40.75;100230.41;5078965;27;45192;-57
2022/04/21 08:35:57;;;;;;;;;13.00;12.33;;;;;14.92;39.45;100233.19;5078531;27;45650;-60
2022/04/21 08:38:24;;;;;;;;;18.67;17.33;;;;;15.23;39.29;100236.91;5091594;27;46878;-58
2022/04/21 08:41:03;;;;;;;;;12.67;12.67;;;;;15.48;38.64;100230.41;5077925;28;45369;-56
2022/04/21 08:43:29;;;;;;;;;16.00;13.33;;;;;15.83;38.50;100241.78;5076679;28;45500;-60
2022/04/21 08:45:55;;;;;;;;;14.33;11.67;;;;;16.08;38.05;100234.38;5077774;28;45758;-57
2022/04/21 08:48:24;;;;;;;;;15.33;13.00;;;;;16.09;37.77;100209.25;5082975;27;45466;-57
2022/04/21 08:50:51;;;;;;;;;12.00;12.00;;;;;16.24;37.12;100205.25;5061689;28;45524;-58
2022/04/21 08:53:24;;;;;;;;;12.67;11.00;;;;;16.71;37.57;100236.06;5078241;27;45408;-59
2022/04/21 08:55:51;;;;;;;;;15.00;15.00;;;;;16.96;36.50;100232.09;5076243;27;45504;-58
2022/04/21 08:58:17;;;;;;;;;13.00;13.00;;;;;17.08;36.86;100208.66;5077267;28;45259;-59
2022/04/21 09:00:44;;;;;;;;;11.33;11.33;;;;;17.43;36.41;100229.66;5111256;27;45328;-60
2022/04/21 09:03:11;;;;;;;;;16.67;14.00;;;;;17.65;35.92;100229.41;5077142;27;45245;-61
2022/04/21 09:05:37;;;;;;;;;12.33;12.33;;;;;17.79;34.67;100224.63;5076376;28;45564;-59
2022/04/21 09:08:04;;;;;;;;;17.00;14.00;;;;;18.02;34.79;100231.44;5077693;27;45509;-59
2022/04/21 09:10:34;;;;;;;;;12.67;12.67;;;;;18.26;34.86;100204.94;5078045;27;45440;-59
2022/04/21 09:13:02;;;;;;;;;13.67;13.67;;;;;18.40;32.97;100192.84;5075355;27;45486;-60
2022/04/21 09:15:32;;;;;;;;;14.00;13.00;;;;;18.73;32.67;100204.94;5077101;27;45590;-58
2022/04/21 09:18:07;;;;;;;;;13.33;11.67;;;;;19.12;33.47;100221.78;5077929;27;45278;-57
2022/04/21 09:20:33;;;;;;;;;15.33;12.67;;;;;19.36;31.45;100212.31;5076143;27;45335;-56
2022/04/21 09:23:01;;;;;;;;;12.33;12.00;;;;;19.48;31.28;100184.13;5072796;28;45436;-59
2022/04/21 09:25:28;;;;;;;;;16.67;15.67;;;;;19.82;31.40;100203.22;5060464;28;46025;-59
2022/04/21 09:27:57;;;;;;;;;14.00;12.67;;;;;20.04;31.82;100208.09;5078033;27;45441;-58
2022/04/21 09:30:23;;;;;;;;;12.00;12.00;;;;;20.30;30.60;100204.59;5075925;27;45371;-56
2022/04/21 09:32:55;;;;;;;;;14.67;13.67;;;;;20.41;30.75;100198.94;5077753;27;45326;-54
2022/04/21 09:35:28;;;;;;;;;11.67;11.33;;;;;20.60;30.33;100201.47;5078383;27;45417;-56
2022/04/21 09:37:56;;;;;;;;;13.67;13.67;;;;;20.75;29.43;100190.06;5077331;27;45439;-56
2022/04/21 09:40:26;;;;;;;;;15.00;13.33;;;;;20.99;28.83;100192.88;5076503;27;45294;-56
2022/04/21 09:42:59;;;;;;;;;14.33;12.67;;;;;21.28;28.59;100197.91;5077879;27;46040;-59
2022/04/21 09:48:19;;;;;;;;;12.33;11.67;;;;;21.50;29.40;100182.94;5072888;28;45986;-57
2022/04/21 09:50:49;;;;;;;;;13.00;13.00;;;;;21.63;28.34;100183.28;5077522;27;45361;-57
2022/04/21 09:53:19;;;;;;;;;11.33;11.33;;;;;21.79;29.17;100172.47;5041330;28;45509;-59
2022/04/21 09:55:45;;;;;;;;;14.00;12.67;;;;;21.68;27.93;100140.31;5065292;28;46423;-56
2022/04/21 09:58:12;;;;;;;;;14.67;13.00;;;;;21.76;27.44;100151.16;5088466;27;47361;-56
2022/04/21 10:00:39;;;;;;;;;11.33;11.33;;;;;21.93;27.77;100181.78;5078311;27;45803;-57
2022/04/21 10:03:05;;;;;;;;;15.00;15.00;;;;;21.87;27.43;100173.47;5075995;28;45575;-57
2022/04/21 10:05:33;;;;;;;;;16.33;14.33;;;;;21.70;27.71;100176.16;5077576;27;45588;-55
2022/04/21 10:08:04;;;;;;;;;17.67;15.67;;;;;21.59;27.40;100157.53;5077520;27;46340;-55
2022/04/21 10:10:30;;;;;;;;;15.67;13.00;;;;;21.48;27.35;100161.44;5076146;27;45375;-55
2022/04/21 10:12:57;;;;;;;;;14.00;12.33;;;;;21.41;28.01;100164.97;5076211;28;45522;-55
2022/04/21 10:15:24;;;;;;;;;17.00;14.00;;;;;21.08;28.21;100159.44;5077416;27;45543;-60
2022/04/21 10:17:49;;;;;;;;;12.67;12.67;;;;;20.94;28.52;100165.47;5076347;28;45350;-56
2022/04/21 10:20:15;;;;;;;;;13.00;12.67;;;;;20.70;28.09;100149.13;5076835;27;45362;-57
2022/04/21 10:22:42;;;;;;;;;19.00;17.00;;;;;20.45;28.08;100140.94;5075486;28;45402;-59
2022/04/21 10:25:08;;;;;;;;;11.33;11.33;;;;;20.22;28.48;100135.19;5075838;28;45556;-57
2022/04/21 10:27:39;;;;;;;;;13.33;13.00;;;;;20.10;29.22;100138.31;5077083;27;45447;-56
2022/04/21 10:30:26;;;;;;;;;11.67;11.67;;;;;20.01;29.28;100153.59;5077852;27;45252;-57
2022/04/21 10:33:01;;;;;;;;;11.00;11.00;;;;;19.94;29.38;100126.41;5076933;27;45340;-54
2022/04/21 10:35:34;;;;;;;;;15.33;13.67;;;;;19.80;28.88;100134.22;5077233;27;45394;-60
2022/04/21 10:38:14;;;;;;;;;12.00;10.67;;;;;19.65;28.82;100131.19;5074800;28;46189;-56
2022/04/21 10:41:10;;;;;;;;;16.33;15.00;;;;;19.60;29.04;100123.59;5076824;28;45896;-56
2022/04/21 10:44:02;;;;;;;;;11.67;11.67;;;;;19.54;28.97;100132.28;5077088;27;45407;-57
2022/04/21 10:46:29;;;;;;;;;13.00;12.00;;;;;19.51;29.00;100127.16;5065293;27;45467;-57
2022/04/21 10:48:56;;;;;;;;;12.00;12.00;;;;;19.52;29.80;100130.72;5076993;27;46271;-55
2022/04/21 10:57:28;;;;;;;;;12.33;12.33;;;;;19.62;29.39;100121.56;5077829;28;45391;-54
2022/04/21 11:00:08;;;;;;;;;19.67;15.67;;;;;19.60;29.07;100125.44;5077527;27;46446;-55
2022/04/21 11:02:41;;;;;;;;;11.33;11.33;;;;;19.62;29.04;100116.19;5076961;27;45439;-56
2022/04/21 11:05:22;;;;;;;;;16.67;14.33;;;;;19.70;29.82;100118.94;5076857;27;45410;-60
2022/04/21 11:07:55;;;;;;;;;14.67;14.67;;;;;19.61;28.29;100109.09;5075477;27;45441;-55
2022/04/21 11:10:39;;;;;;;;;12.00;12.00;;;;;19.67;28.76;100115.72;5076354;27;45447;-59
2022/04/21 11:13:06;;;;;;;;;13.33;12.33;;;;;19.68;28.43;100120.13;5075942;27;45310;-58
2022/04/21 11:15:38;;;;;;;;;14.33;13.00;;;;;19.66;27.96;100095.13;5076914;27;45490;-53
2022/04/21 11:18:09;;;;;;;;;11.67;11.67;;;;;19.73;28.49;100085.41;5076683;27;45577;-58
2022/04/21 11:20:37;;;;;;;;;12.33;12.33;;;;;19.78;28.71;100083.06;5074695;28;46258;-59
2022/04/21 11:23:03;;;;;;;;;17.67;16.67;;;;;19.98;28.99;100094.53;5076243;27;45416;-57
2022/04/21 11:25:35;;;;;;;;;12.00;9.67;;;;;19.89;27.83;100072.03;5076795;27;45329;-61
2022/04/21 11:28:02;;;;;;;;;19.00;14.33;;;;;19.99;27.17;100085.44;5076746;27;45543;-59
2022/04/21 11:30:32;;;;;;;;;15.67;12.00;;;;;20.01;27.09;100084.25;5079925;27;45801;-58
2022/04/21 11:32:57;;;;;;;;;14.67;14.67;;;;;20.01;27.50;100084.25;5078491;27;45378;-56
2022/04/21 11:35:24;;;;;;;;;13.33;13.33;;;;;20.00;28.02;100077.16;5078376;28;45377;-57
2022/04/21 11:37:57;;;;;;;;;10.33;10.33;;;;;20.03;27.75;100076.00;5079914;27;45616;-56
2022/04/21 11:40:26;;;;;;;;;14.33;10.33;;;;;20.16;27.49;100092.63;5079376;27;46172;-59
2022/04/21 11:42:54;;;;;;;;;17.00;15.00;;;;;20.19;26.75;100089.63;5079555;27;45215;-56
2022/04/21 11:45:27;;;;;;;;;13.33;13.00;;;;;20.24;27.64;100089.13;5079756;27;45371;-57
2022/04/21 11:47:53;;;;;;;;;10.00;10.00;;;;;20.39;27.88;100092.91;5079764;27;45368;-59
2022/04/21 11:50:27;;;;;;;;;12.33;12.33;;;;;20.42;27.65;100079.13;5077916;28;45708;-56
2022/04/21 11:52:54;;;;;;;;;13.00;13.00;;;;;20.47;28.40;100079.50;5079417;27;45264;-56
2022/04/21 11:55:25;;;;;;;;;13.33;12.00;;;;;20.40;28.07;100078.41;5079542;27;45330;-56
2022/04/21 11:57:51;;;;;;;;;12.33;12.33;;;;;20.47;28.36;100079.50;5079526;27;45570;-55